createdAt,value
2022-09-26T00:00:04.984Z,10.4
2022-09-26T00:01:07.527Z,10.4
2022-09-26T00:02:05.134Z,10.4
2022-09-26T00:03:05.266Z,10.3
2022-09-26T00:04:05.126Z,10.4
2022-09-26T00:05:05.293Z,10.4
2022-09-26T00:06:05.202Z,10.3
2022-09-26T00:07:06.287Z,10.3
2022-09-26T00:08:05.312Z,10.2
2022-09-26T00:09:05.471Z,10.1
2022-09-26T00:10:05.455Z,10.1
2022-09-26T00:11:05.504Z,10.2
2022-09-26T00:12:05.557Z,10.2
2022-09-26T00:13:06.575Z,10.2
2022-09-26T00:14:05.704Z,10
2022-09-26T00:15:06.013Z,9.9
2022-09-26T00:16:05.780Z,10
2022-09-26T00:20:06.017Z,9.8
2022-09-26T00:21:06.119Z,9.9
2022-09-26T00:22:08.029Z,9.9
2022-09-26T00:23:06.185Z,10
2022-09-26T00:24:06.419Z,10.1
2022-09-26T00:25:08.601Z,10.1
2022-09-26T00:26:06.402Z,10.1
2022-09-26T00:27:06.515Z,10.2
2022-09-26T00:28:07.740Z,10.2
2022-09-26T00:29:06.543Z,10.2
2022-09-26T00:30:06.634Z,10.3
2022-09-26T00:31:06.929Z,10.2
2022-09-26T00:32:07.014Z,10.1
2022-09-26T00:33:06.856Z,10.1
2022-09-26T00:34:06.840Z,10.1
2022-09-26T00:35:07.109Z,10.2
2022-09-26T00:36:06.961Z,10.3
2022-09-26T00:37:07.231Z,10.2
2022-09-26T00:38:07.049Z,10.1
2022-09-26T00:39:07.095Z,10
2022-09-26T00:40:07.201Z,10
2022-09-26T00:41:07.517Z,10.1
2022-09-26T00:42:07.278Z,10
2022-09-26T00:43:07.339Z,9.9
2022-09-26T00:44:07.420Z,9.8
2022-09-26T00:45:07.518Z,9.7
2022-09-26T00:46:07.686Z,9.6
2022-09-26T00:47:07.565Z,9.6
2022-09-26T00:48:07.676Z,9.5
2022-09-26T00:49:09.602Z,9.5
2022-09-26T00:50:07.735Z,9.6
2022-09-26T00:51:08.494Z,9.5
2022-09-26T00:52:07.835Z,9.5
2022-09-26T00:53:08.877Z,9.6
2022-09-26T00:54:07.976Z,9.6
2022-09-26T00:55:08.141Z,9.7
2022-09-26T00:56:08.169Z,9.7
2022-09-26T00:57:08.177Z,9.5
2022-09-26T00:58:08.184Z,9.6
2022-09-26T00:59:08.227Z,9.7
2022-09-26T01:00:08.542Z,9.6
2022-09-26T01:01:09.478Z,9.8
2022-09-26T01:02:08.422Z,9.8
2022-09-26T01:03:08.523Z,9.9
2022-09-26T01:04:08.585Z,10
2022-09-26T01:05:08.418Z,10
2022-09-26T01:06:08.476Z,10
2022-09-26T01:07:09.601Z,10
2022-09-26T01:08:08.533Z,10
2022-09-26T01:09:08.617Z,9.9
2022-09-26T01:10:08.577Z,10
2022-09-26T01:11:10.785Z,10
2022-09-26T01:12:08.823Z,10
2022-09-26T01:13:08.778Z,10.1
2022-09-26T01:14:09.137Z,10
2022-09-26T01:15:08.816Z,9.8
2022-09-26T01:16:09.043Z,9.8
2022-09-26T01:17:09.029Z,9.9
2022-09-26T01:18:08.979Z,9.9
2022-09-26T01:19:10.539Z,9.9
2022-09-26T01:20:09.382Z,9.9
2022-09-26T01:21:09.328Z,9.9
2022-09-26T01:22:09.294Z,9.8
2022-09-26T01:23:09.240Z,9.8
2022-09-26T01:24:09.286Z,9.8
2022-09-26T01:25:09.329Z,9.8
2022-09-26T01:26:09.407Z,9.8
2022-09-26T01:27:09.436Z,9.7
2022-09-26T01:28:09.498Z,9.5
2022-09-26T01:29:09.616Z,9.4
2022-09-26T01:30:09.599Z,9.4
2022-09-26T01:31:09.937Z,9.4
2022-09-26T01:32:09.706Z,9.5
2022-09-26T01:33:09.729Z,9.6
2022-09-26T01:34:09.787Z,9.7
2022-09-26T01:35:09.856Z,9.6
2022-09-26T01:36:09.912Z,9.6
2022-09-26T01:37:10.253Z,9.5
2022-09-26T01:38:10.023Z,9.4
2022-09-26T01:39:10.070Z,9.3
2022-09-26T01:40:10.266Z,9
2022-09-26T01:41:10.169Z,8.9
2022-09-26T01:42:10.259Z,8.9
2022-09-26T01:43:10.627Z,9.2
2022-09-26T01:44:10.389Z,9.4
2022-09-26T01:45:10.446Z,9.4
2022-09-26T01:46:10.526Z,9.4
2022-09-26T01:47:10.565Z,9.4
2022-09-26T01:48:10.617Z,9.5
2022-09-26T01:49:10.982Z,9.4
2022-09-26T01:50:10.837Z,9.3
2022-09-26T01:51:10.770Z,9.3
2022-09-26T01:52:10.845Z,9.3
2022-09-26T01:53:10.910Z,9.7
2022-09-26T01:54:10.982Z,9.9
2022-09-26T01:55:11.009Z,9.9
2022-09-26T01:56:11.083Z,9.6
2022-09-26T01:57:11.142Z,9.7
2022-09-26T01:58:11.178Z,9.6
2022-09-26T01:59:11.299Z,9.6
2022-09-26T02:00:11.627Z,9.5
2022-09-26T02:01:11.485Z,9.6
2022-09-26T02:02:11.902Z,9.6
2022-09-26T02:03:11.452Z,9.6
2022-09-26T02:04:11.530Z,9.6
2022-09-26T02:05:11.621Z,9.5
2022-09-26T02:06:11.972Z,9.5
2022-09-26T02:07:12.389Z,9.4
2022-09-26T02:08:12.076Z,9.5
2022-09-26T02:09:11.843Z,9.6
2022-09-26T02:10:11.892Z,9.7
2022-09-26T02:11:11.936Z,9.7
2022-09-26T02:12:12.088Z,9.7
2022-09-26T02:13:12.043Z,9.6
2022-09-26T02:14:12.070Z,9.7
2022-09-26T02:15:12.086Z,9.7
2022-09-26T02:16:12.182Z,9.7
2022-09-26T02:17:12.560Z,9.7
2022-09-26T02:18:12.229Z,9.8
2022-09-26T02:19:12.380Z,9.9
2022-09-26T02:20:12.410Z,9.9
2022-09-26T02:21:12.356Z,10.1
2022-09-26T02:22:12.515Z,10
2022-09-26T02:23:12.467Z,10
2022-09-26T02:24:12.567Z,9.9
2022-09-26T02:25:12.589Z,9.8
2022-09-26T02:26:12.644Z,9.7
2022-09-26T02:27:12.707Z,9.5
2022-09-26T02:28:12.764Z,9.5
2022-09-26T02:29:12.971Z,9.5
2022-09-26T02:30:12.865Z,9.5
2022-09-26T02:31:12.992Z,9.6
2022-09-26T02:32:13.097Z,9.6
2022-09-26T02:33:23.319Z,9.6
2022-09-26T02:34:35.977Z,9.6
2022-09-26T02:35:13.766Z,9.7
2022-09-26T02:36:13.237Z,9.6
2022-09-26T02:37:35.494Z,9.6
2022-09-26T02:38:13.346Z,9.7
2022-09-26T02:39:22.884Z,9.8
2022-09-26T02:40:35.525Z,9.8
2022-09-26T02:41:17.050Z,9.8
2022-09-26T02:42:13.565Z,9.7
2022-09-26T02:43:36.194Z,9.6
2022-09-26T02:44:13.702Z,9.6
2022-09-26T02:45:14.078Z,9.6
2022-09-26T02:46:33.460Z,9.7
2022-09-26T02:47:14.115Z,9.8
2022-09-26T02:48:14.100Z,9.8
2022-09-26T02:49:19.690Z,9.8
2022-09-26T02:50:14.778Z,9.9
2022-09-26T02:51:14.810Z,9.9
2022-09-26T02:52:37.245Z,9.9
2022-09-26T02:53:14.912Z,9.9
2022-09-26T02:54:15.004Z,9.9
2022-09-26T02:55:43.498Z,9.9
2022-09-26T02:56:15.144Z,9.9
2022-09-26T02:57:15.179Z,10
2022-09-26T02:58:39.430Z,10
2022-09-26T02:59:15.614Z,9.9
2022-09-26T03:00:15.426Z,9.9
2022-09-26T03:01:35.158Z,10
2022-09-26T03:02:15.526Z,10
2022-09-26T03:03:15.538Z,10
2022-09-26T03:04:39.921Z,10
2022-09-26T03:05:15.701Z,10
2022-09-26T03:06:15.782Z,9.9
2022-09-26T03:07:36.953Z,9.9
2022-09-26T03:08:15.854Z,10
2022-09-26T03:09:16.898Z,10
2022-09-26T03:10:39.975Z,9.9
2022-09-26T03:11:16.312Z,9.8
2022-09-26T03:12:16.107Z,9.9
2022-09-26T03:13:40.873Z,9.9
2022-09-26T03:14:16.250Z,9.9
2022-09-26T03:15:16.367Z,9.8
2022-09-26T03:16:40.221Z,9.8
2022-09-26T03:17:16.414Z,9.8
2022-09-26T03:18:16.512Z,9.7
2022-09-26T03:19:27.171Z,9.7
2022-09-26T03:20:18.564Z,9.7
2022-09-26T03:21:18.085Z,9.7
2022-09-26T03:22:22.458Z,9.7
2022-09-26T03:23:22.283Z,9.7
2022-09-26T03:24:18.854Z,9.7
2022-09-26T03:25:18.047Z,9.8
2022-09-26T03:26:20.038Z,9.9
2022-09-26T03:27:18.165Z,9.9
2022-09-26T03:28:18.343Z,9.8
2022-09-26T03:29:17.572Z,9.8
2022-09-26T03:30:20.556Z,9.8
2022-09-26T03:31:18.022Z,9.9
2022-09-26T03:32:19.596Z,10
2022-09-26T03:33:17.952Z,9.9
2022-09-26T03:34:21.583Z,9.8
2022-09-26T03:35:19.540Z,9.9
2022-09-26T03:36:18.446Z,9.8
2022-09-26T03:37:19.518Z,9.9
2022-09-26T03:38:21.470Z,9.8
2022-09-26T03:39:22.157Z,9.8
2022-09-26T03:40:19.480Z,9.9
2022-09-26T03:41:18.379Z,9.9
2022-09-26T03:42:23.926Z,9.8
2022-09-26T03:43:20.108Z,9.8
2022-09-26T03:44:22.468Z,9.8
2022-09-26T03:45:18.153Z,9.8
2022-09-26T03:46:20.775Z,9.8
2022-09-26T03:47:18.114Z,9.8
2022-09-26T03:48:19.985Z,9.8
2022-09-26T03:49:19.612Z,9.9
2022-09-26T03:50:21.820Z,9.9
2022-09-26T03:51:18.289Z,9.9
2022-09-26T03:52:23.512Z,9.9
2022-09-26T03:53:18.386Z,9.9
2022-09-26T03:54:22.030Z,9.8
2022-09-26T03:55:18.526Z,9.9
2022-09-26T03:56:33.593Z,9.9
2022-09-26T03:57:18.630Z,9.9
2022-09-26T03:58:25.564Z,9.9
2022-09-26T03:59:41.273Z,9.8
2022-09-26T04:00:32.192Z,9.8
2022-09-26T04:01:22.115Z,9.8
2022-09-26T04:02:36.592Z,9.8
2022-09-26T04:03:23.474Z,9.9
2022-09-26T04:04:47.777Z,10
2022-09-26T04:05:33.060Z,10
2022-09-26T04:06:40.288Z,10
2022-09-26T04:07:19.228Z,10
2022-09-26T04:08:55.667Z,10
2022-09-26T04:09:40.442Z,9.8
2022-09-26T04:10:19.551Z,9.9
2022-09-26T04:12:04.678Z,9.8
2022-09-26T04:12:19.712Z,9.9
2022-09-26T04:13:40.013Z,9.8
2022-09-26T04:16:05.955Z,9.7
2022-09-26T04:16:19.833Z,9.7
2022-09-26T04:17:19.848Z,9.7
2022-09-26T04:18:19.893Z,9.7
2022-09-26T04:19:19.956Z,9.6
2022-09-26T04:20:20.082Z,9.7
2022-09-26T04:21:20.292Z,9.7
2022-09-26T04:22:20.362Z,9.7
2022-09-26T04:23:20.217Z,9.6
2022-09-26T04:24:20.329Z,9.7
2022-09-26T04:25:20.710Z,9.7
2022-09-26T04:26:23.530Z,9.7
2022-09-26T04:27:20.508Z,9.7
2022-09-26T04:28:20.496Z,9.8
2022-09-26T04:29:20.580Z,9.8
2022-09-26T04:31:29.363Z,9.7
2022-09-26T04:32:20.756Z,9.8
2022-09-26T04:33:20.925Z,9.7
2022-09-26T04:34:24.861Z,9.7
2022-09-26T04:35:21.065Z,9.6
2022-09-26T04:36:20.999Z,9.6
2022-09-26T04:37:21.035Z,9.5
2022-09-26T04:38:21.040Z,9.5
2022-09-26T04:39:21.339Z,9.6
2022-09-26T04:41:21.256Z,9.4
2022-09-26T04:42:21.243Z,9.4
2022-09-26T04:43:33.431Z,9.4
2022-09-26T04:44:21.304Z,9.4
2022-09-26T04:45:21.571Z,9.4
2022-09-26T04:46:23.694Z,9.5
2022-09-26T04:47:21.441Z,9.5
2022-09-26T04:48:21.657Z,9.4
2022-09-26T04:49:21.702Z,9.3
2022-09-26T04:50:21.560Z,9.4
2022-09-26T04:51:23.009Z,9.4
2022-09-26T04:52:21.954Z,9.5
2022-09-26T04:53:22.136Z,9.4
2022-09-26T04:54:22.066Z,9.3
2022-09-26T04:55:22.173Z,9.3
2022-09-26T04:56:22.039Z,9.3
2022-09-26T04:57:21.909Z,9.4
2022-09-26T04:58:22.128Z,9.3
2022-09-26T04:59:21.964Z,9.3
2022-09-26T05:00:22.216Z,9.2
2022-09-26T05:01:23.803Z,9.3
2022-09-26T05:02:22.173Z,9.3
2022-09-26T05:03:22.577Z,9.4
2022-09-26T05:04:26.727Z,9.3
2022-09-26T05:05:22.223Z,9.3
2022-09-26T05:06:22.315Z,9.3
2022-09-26T05:07:22.595Z,9.2
2022-09-26T05:08:22.396Z,9.1
2022-09-26T05:09:22.475Z,9.1
2022-09-26T05:10:22.630Z,9.1
2022-09-26T05:11:22.884Z,9
2022-09-26T05:12:22.613Z,9.1
2022-09-26T05:13:22.702Z,9.3
2022-09-26T05:14:22.695Z,9.3
2022-09-26T05:15:23.079Z,9.1
2022-09-26T05:16:23.075Z,9.1
2022-09-26T05:17:22.909Z,9.1
2022-09-26T05:18:22.980Z,9.1
2022-09-26T05:19:22.981Z,9.3
2022-09-26T05:20:23.085Z,9.2
2022-09-26T05:21:23.133Z,9.2
2022-09-26T05:22:23.196Z,9.3
2022-09-26T05:23:23.197Z,9.4
2022-09-26T05:24:23.272Z,9.4
2022-09-26T05:25:23.355Z,9.2
2022-09-26T05:26:23.384Z,9.2
2022-09-26T05:27:23.462Z,9.1
2022-09-26T05:28:23.484Z,9.2
2022-09-26T05:29:24.158Z,9.2
2022-09-26T05:30:23.620Z,9.3
2022-09-26T05:31:24.843Z,9.3
2022-09-26T05:32:23.908Z,9.2
2022-09-26T05:33:23.787Z,9.2
2022-09-26T05:34:24.022Z,9.1
2022-09-26T05:35:24.250Z,9.2
2022-09-26T05:36:28.045Z,9.3
2022-09-26T05:37:25.103Z,9.2
2022-09-26T05:38:24.352Z,9.2
2022-09-26T05:39:26.457Z,9.2
2022-09-26T05:40:24.623Z,9.2
2022-09-26T05:41:24.505Z,9.3
2022-09-26T05:42:29.089Z,9.3
2022-09-26T05:43:27.022Z,9.2
2022-09-26T05:44:33.609Z,9.1
2022-09-26T05:46:26.456Z,9.1
2022-09-26T05:47:26.467Z,9
2022-09-26T05:48:29.477Z,9.1
2022-09-26T05:49:29.202Z,9.2
2022-09-26T05:50:25.070Z,9.3
2022-09-26T05:51:27.767Z,9.2
2022-09-26T05:52:28.730Z,9.3
2022-09-26T05:53:27.739Z,9.3
2022-09-26T05:54:27.759Z,9.4
2022-09-26T05:55:30.127Z,9.4
2022-09-26T05:56:28.035Z,9.3
2022-09-26T05:57:27.867Z,9.2
2022-09-26T05:58:27.938Z,9.1
2022-09-26T05:59:28.306Z,9.2
2022-09-26T06:00:28.205Z,9.3
2022-09-26T06:01:28.156Z,9.3
2022-09-26T06:02:28.332Z,9.2
2022-09-26T06:03:28.195Z,9.2
2022-09-26T06:04:28.278Z,9.2
2022-09-26T06:05:28.320Z,9.4
2022-09-26T06:06:28.421Z,9.5
2022-09-26T06:07:29.833Z,9.4
2022-09-26T06:08:28.529Z,9.5
2022-09-26T06:09:28.553Z,9.5
2022-09-26T06:10:29.177Z,9.4
2022-09-26T06:11:28.661Z,9.4
2022-09-26T06:12:28.738Z,9.4
2022-09-26T06:13:28.827Z,9.5
2022-09-26T06:14:28.838Z,9.4
2022-09-26T06:16:29.930Z,9.4
2022-09-26T06:17:29.857Z,9.5
2022-09-26T06:18:29.923Z,9.6
2022-09-26T06:19:30.094Z,9.6
2022-09-26T06:20:30.253Z,9.6
2022-09-26T06:21:30.056Z,9.5
2022-09-26T06:22:30.098Z,9.5
2022-09-26T06:23:30.132Z,9.6
2022-09-26T06:24:30.192Z,9.8
2022-09-26T06:25:30.263Z,9.7
2022-09-26T06:26:30.335Z,9.7
2022-09-26T06:27:30.552Z,9.7
2022-09-26T06:28:30.402Z,9.6
2022-09-26T06:29:30.446Z,9.6
2022-09-26T06:30:30.713Z,9.6
2022-09-26T06:31:30.913Z,9.6
2022-09-26T06:32:30.655Z,9.7
2022-09-26T06:33:33.333Z,9.6
2022-09-26T06:34:30.645Z,9.6
2022-09-26T06:35:30.687Z,9.7
2022-09-26T06:36:30.770Z,9.8
2022-09-26T06:37:30.778Z,9.7
2022-09-26T06:38:30.860Z,9.8
2022-09-26T06:39:30.839Z,9.7
2022-09-26T06:40:30.971Z,9.7
2022-09-26T06:41:31.006Z,9.7
2022-09-26T06:42:31.035Z,9.8
2022-09-26T06:43:31.192Z,9.8
2022-09-26T06:44:31.235Z,9.8
2022-09-26T06:45:31.452Z,9.8
2022-09-26T06:46:31.478Z,9.9
2022-09-26T06:47:31.222Z,9.9
2022-09-26T06:48:31.526Z,9.8
2022-09-26T06:49:31.316Z,9.8
2022-09-26T06:50:31.535Z,9.8
2022-09-26T06:52:31.478Z,9.8
2022-09-26T06:53:31.509Z,9.8
2022-09-26T06:54:31.548Z,9.9
2022-09-26T06:55:31.847Z,9.9
2022-09-26T06:56:31.660Z,9.9
2022-09-26T06:57:31.719Z,9.9
2022-09-26T06:58:31.826Z,10
2022-09-26T06:59:31.865Z,10
2022-09-26T07:00:32.106Z,10
2022-09-26T07:01:32.151Z,10
2022-09-26T07:02:32.077Z,10
2022-09-26T07:03:32.137Z,9.9
2022-09-26T07:04:32.424Z,9.9
2022-09-26T07:05:32.263Z,9.9
2022-09-26T07:06:32.328Z,10.1
2022-09-26T07:07:32.389Z,10.1
2022-09-26T07:08:57.673Z,10.1
2022-09-26T07:09:32.559Z,10.1
2022-09-26T07:10:32.579Z,10.1
2022-09-26T07:11:46.211Z,10.1
2022-09-26T07:12:32.704Z,10.2
2022-09-26T07:13:33.043Z,10.3
2022-09-26T07:14:32.913Z,10.3
2022-09-26T07:15:33.057Z,10.2
2022-09-26T07:16:33.322Z,10.3
2022-09-26T07:17:32.954Z,10.3
2022-09-26T07:18:33.229Z,10.3
2022-09-26T07:19:33.031Z,10.3
2022-09-26T07:20:33.086Z,10.2
2022-09-26T07:21:33.116Z,10.3
2022-09-26T07:22:33.181Z,10.3
2022-09-26T07:23:33.234Z,10.4
2022-09-26T07:24:33.293Z,10.5
2022-09-26T07:25:33.989Z,10.5
2022-09-26T07:26:33.526Z,10.5
2022-09-26T07:27:34.665Z,10.4
2022-09-26T07:28:34.011Z,10.5
2022-09-26T07:29:33.539Z,10.5
2022-09-26T07:30:33.624Z,10.4
2022-09-26T07:31:33.807Z,10.5
2022-09-26T07:32:33.727Z,10.5
2022-09-26T07:33:33.728Z,10.6
2022-09-26T07:34:33.777Z,10.7
2022-09-26T07:35:33.801Z,10.8
2022-09-26T07:36:33.867Z,10.8
2022-09-26T07:37:33.878Z,10.9
2022-09-26T07:38:33.936Z,10.9
2022-09-26T07:39:34.363Z,10.9
2022-09-26T07:40:34.107Z,11.1
2022-09-26T07:41:34.055Z,11
2022-09-26T07:42:34.135Z,11.1
2022-09-26T07:44:19.136Z,11.2
2022-09-26T07:45:17.339Z,11.3
2022-09-26T07:45:34.403Z,11.3
2022-09-26T07:46:34.413Z,11.2
2022-09-26T07:47:34.348Z,11.2
2022-09-26T07:48:34.411Z,11.2
2022-09-26T07:49:34.400Z,11.2
2022-09-26T07:50:34.453Z,11.2
2022-09-26T07:51:34.460Z,11.2
2022-09-26T07:52:34.845Z,11.3
2022-09-26T07:53:34.645Z,11.3
2022-09-26T07:54:34.889Z,11.3
2022-09-26T07:55:34.625Z,11.2
2022-09-26T07:56:35.030Z,11.1
2022-09-26T07:57:35.077Z,11.1
2022-09-26T07:58:34.927Z,11.1
2022-09-26T07:59:34.787Z,11.1
2022-09-26T08:00:35.036Z,11.2
2022-09-26T08:01:34.903Z,11.3
2022-09-26T08:02:35.317Z,11.2
2022-09-26T08:03:34.983Z,11.2
2022-09-26T08:04:35.067Z,11.2
2022-09-26T08:05:35.071Z,11.2
2022-09-26T08:06:35.078Z,11.2
2022-09-26T08:07:35.079Z,11.2
2022-09-26T08:08:35.157Z,11.2
2022-09-26T08:09:35.390Z,11.3
2022-09-26T08:10:35.342Z,11.3
2022-09-26T08:11:35.398Z,11.2
2022-09-26T08:12:35.454Z,11.2
2022-09-26T08:13:35.646Z,11.2
2022-09-26T08:14:39.654Z,11.2
2022-09-26T08:27:40.225Z,11.5
2022-09-26T08:28:40.342Z,11.5
2022-09-26T08:29:40.308Z,11.6
2022-09-26T08:30:40.371Z,11.5
2022-09-26T08:31:40.421Z,11.6
2022-09-26T08:32:40.475Z,11.5
2022-09-26T08:33:40.612Z,11.6
2022-09-26T08:34:40.857Z,11.5
2022-09-26T08:35:40.617Z,11.5
2022-09-26T08:36:40.678Z,11.6
2022-09-26T08:37:41.029Z,11.5
2022-09-26T08:38:41.108Z,11.6
2022-09-26T08:39:41.003Z,11.7
2022-09-26T08:40:41.159Z,11.7
2022-09-26T08:41:40.967Z,11.6
2022-09-26T08:42:41.056Z,11.5
2022-09-26T08:43:59.565Z,11.5
2022-09-26T08:44:41.167Z,11.6
2022-09-26T08:46:02.857Z,11.5
2022-09-26T08:48:45.260Z,11.4
2022-09-26T08:49:41.692Z,11.4
2022-09-26T08:50:41.929Z,11.3
2022-09-26T08:51:43.959Z,11.3
2022-09-26T08:52:44.855Z,11.2
2022-09-26T08:53:41.537Z,11.1
2022-09-26T08:54:41.737Z,11.2
2022-09-26T08:55:41.583Z,11.1
2022-09-26T08:56:41.660Z,11.1
2022-09-26T08:57:42.591Z,11.2
2022-09-26T08:58:42.918Z,11.1
2022-09-26T08:59:41.995Z,11.1
2022-09-26T09:00:43.479Z,11.1
2022-09-26T09:01:42.028Z,11.2
2022-09-26T09:02:48.132Z,11.2
2022-09-26T09:03:42.658Z,11.2
2022-09-26T09:04:42.024Z,11.2
2022-09-26T09:05:42.086Z,11.2
2022-09-26T09:06:45.129Z,11.3
2022-09-26T09:07:42.174Z,11.3
2022-09-26T09:08:42.852Z,11.3
2022-09-26T09:09:43.271Z,11.3
2022-09-26T09:10:42.534Z,11.3
2022-09-26T09:11:42.388Z,11.3
2022-09-26T09:12:44.802Z,11.3
2022-09-26T09:13:42.518Z,11.3
2022-09-26T09:14:42.536Z,11.3
2022-09-26T09:15:45.407Z,11.3
2022-09-26T09:16:44.687Z,11.4
2022-09-26T09:17:42.711Z,11.4
2022-09-26T09:18:44.349Z,11.4
2022-09-26T09:19:42.774Z,11.3
2022-09-26T09:20:43.121Z,11.3
2022-09-26T09:21:43.968Z,11.4
2022-09-26T09:22:43.311Z,11.4
2022-09-26T09:23:43.101Z,11.5
2022-09-26T09:24:46.155Z,11.5
2022-09-26T09:25:43.231Z,11.5
2022-09-26T09:27:53.348Z,11.5
2022-09-26T09:28:43.531Z,11.6
2022-09-26T09:29:48.863Z,11.5
2022-09-26T09:30:46.684Z,11.5
2022-09-26T09:31:43.819Z,11.5
2022-09-26T09:32:43.717Z,11.4
2022-09-26T09:33:44.175Z,11.4
2022-09-26T09:34:43.796Z,11.4
2022-09-26T09:35:43.861Z,11.4
2022-09-26T09:36:43.983Z,11.5
2022-09-26T09:37:44.063Z,11.5
2022-09-26T09:38:44.021Z,11.4
2022-09-26T09:39:44.841Z,11.4
2022-09-26T09:40:44.206Z,11.3
2022-09-26T09:41:44.160Z,11.4
2022-09-26T09:42:45.055Z,11.5
2022-09-26T09:43:44.264Z,11.5
2022-09-26T09:44:46.605Z,11.4
2022-09-26T09:45:44.402Z,11.3
2022-09-26T09:46:44.486Z,11.2
2022-09-26T09:47:44.550Z,11.1
2022-09-26T09:48:47.469Z,11.2
2022-09-26T09:49:44.591Z,11.1
2022-09-26T09:50:44.647Z,11.1
2022-09-26T09:51:44.737Z,11.1
2022-09-26T09:52:44.770Z,11.1
2022-09-26T09:53:45.055Z,11
2022-09-26T09:54:46.031Z,11
2022-09-26T09:55:45.285Z,10.9
2022-09-26T09:56:45.021Z,10.9
2022-09-26T09:57:45.240Z,11
2022-09-26T09:58:45.144Z,11
2022-09-26T09:59:45.158Z,11.1
2022-09-26T10:00:49.080Z,11
2022-09-26T10:01:45.450Z,11
2022-09-26T10:02:45.358Z,10.9
2022-09-26T10:03:45.380Z,10.9
2022-09-26T10:04:45.507Z,10.8
2022-09-26T10:05:45.639Z,10.8
2022-09-26T10:06:47.724Z,10.7
2022-09-26T10:07:45.459Z,10.8
2022-09-26T10:08:45.646Z,10.7
2022-09-26T10:09:45.997Z,10.7
2022-09-26T10:10:45.611Z,10.7
2022-09-26T10:11:49.111Z,10.8
2022-09-26T10:12:45.960Z,10.7
2022-09-26T10:13:45.765Z,10.6
2022-09-26T10:14:45.790Z,10.6
2022-09-26T10:15:45.872Z,10.6
2022-09-26T10:16:45.905Z,10.7
2022-09-26T10:17:56.143Z,10.6
2022-09-26T10:18:46.000Z,10.5
2022-09-26T10:19:46.094Z,10.5
2022-09-26T10:20:46.200Z,10.4
2022-09-26T10:21:46.168Z,10.4
2022-09-26T10:22:46.195Z,10.6
2022-09-26T10:23:46.259Z,10.6
2022-09-26T10:24:46.587Z,10.6
2022-09-26T10:25:46.385Z,10.5
2022-09-26T10:26:46.492Z,10.4
2022-09-26T10:27:46.511Z,10.4
2022-09-26T10:28:46.580Z,10.4
2022-09-26T10:29:46.694Z,10.4
2022-09-26T10:30:47.176Z,10.4
2022-09-26T10:31:46.968Z,10.4
2022-09-26T10:32:46.952Z,10.4
2022-09-26T10:41:47.732Z,10.2
2022-09-26T10:42:47.631Z,10.2
2022-09-26T10:43:47.962Z,10.3
2022-09-26T10:44:47.970Z,10.2
2022-09-26T10:45:47.762Z,10.2
2022-09-26T10:46:47.936Z,10.2
2022-09-26T10:47:47.865Z,10.1
2022-09-26T10:48:50.306Z,10.2
2022-09-26T10:49:47.978Z,10.2
2022-09-26T10:50:47.979Z,10.2
2022-09-26T10:51:48.086Z,10.1
2022-09-26T10:52:48.090Z,10.2
2022-09-26T10:53:48.463Z,10.3
2022-09-26T10:54:48.248Z,10.4
2022-09-26T10:55:48.264Z,10.3
2022-09-26T10:56:48.513Z,10.3
2022-09-26T10:57:48.408Z,10.3
2022-09-26T10:58:48.734Z,10.3
2022-09-26T10:59:48.492Z,10.3
2022-09-26T11:00:48.547Z,10.3
2022-09-26T11:01:48.711Z,10.3
2022-09-26T11:02:48.658Z,10.3
2022-09-26T11:03:48.816Z,10.3
2022-09-26T11:04:48.780Z,10.3
2022-09-26T11:05:48.828Z,10.4
2022-09-26T11:06:49.082Z,10.3
2022-09-26T11:07:49.127Z,10.4
2022-09-26T11:08:49.029Z,10.4
2022-09-26T11:09:49.232Z,10.3
2022-09-26T11:10:49.383Z,10.3
2022-09-26T11:11:49.446Z,10.3
2022-09-26T11:12:52.427Z,10.3
2022-09-26T11:13:53.778Z,10.3
2022-09-26T11:14:52.430Z,10.3
2022-09-26T11:15:52.502Z,10.3
2022-09-26T11:16:52.530Z,10.3
2022-09-26T11:17:52.604Z,10.3
2022-09-26T11:18:52.940Z,10.3
2022-09-26T11:19:54.967Z,10.3
2022-09-26T11:20:52.759Z,10.3
2022-09-26T11:21:52.842Z,10.4
2022-09-26T11:22:53.098Z,10.4
2022-09-26T11:23:52.977Z,10.3
2022-09-26T11:24:53.220Z,10.4
2022-09-26T11:25:57.060Z,10.4
2022-09-26T11:26:53.179Z,10.3
2022-09-26T11:27:53.443Z,10.4
2022-09-26T11:28:53.435Z,10.4
2022-09-26T11:29:53.338Z,10.4
2022-09-26T11:30:53.432Z,10.4
2022-09-26T11:31:56.034Z,10.4
2022-09-26T11:32:53.575Z,10.4
2022-09-26T11:33:53.589Z,10.4
2022-09-26T11:34:53.666Z,10.4
2022-09-26T11:35:53.706Z,10.4
2022-09-26T11:36:53.849Z,10.4
2022-09-26T11:37:53.875Z,10.4
2022-09-26T11:38:53.925Z,10.5
2022-09-26T11:39:54.212Z,10.5
2022-09-26T11:40:54.163Z,10.6
2022-09-26T11:41:54.079Z,10.6
2022-09-26T11:42:54.145Z,10.7
2022-09-26T11:43:54.227Z,10.7
2022-09-26T11:44:54.280Z,10.7
2022-09-26T11:45:54.474Z,10.7
2022-09-26T11:46:54.402Z,10.8
2022-09-26T11:47:54.377Z,10.8
2022-09-26T11:48:54.400Z,10.9
2022-09-26T11:49:54.464Z,10.8
2022-09-26T11:50:54.500Z,10.8
2022-09-26T11:51:54.564Z,10.9
2022-09-26T11:52:54.596Z,10.9
2022-09-26T11:54:00.014Z,10.9
2022-09-26T11:54:54.740Z,10.9
2022-09-26T11:55:54.787Z,10.9
2022-09-26T11:56:54.845Z,10.9
2022-09-26T11:57:54.863Z,10.9
2022-09-26T11:58:54.947Z,11
2022-09-26T11:59:55.018Z,11
2022-09-26T12:00:55.061Z,11
2022-09-26T12:01:55.118Z,11.1
2022-09-26T12:02:55.513Z,11.1
2022-09-26T12:03:55.362Z,11.1
2022-09-26T12:04:55.262Z,11.1
2022-09-26T12:05:55.323Z,11.1
2022-09-26T12:06:55.388Z,11.1
2022-09-26T12:07:55.438Z,11.1
2022-09-26T12:08:55.784Z,11.1
2022-09-26T12:09:55.714Z,11.2
2022-09-26T12:10:55.582Z,11.2
2022-09-26T12:11:55.677Z,11.1
2022-09-26T12:12:55.948Z,11.1
2022-09-26T12:13:55.779Z,11.2
2022-09-26T12:14:55.842Z,11.3
2022-09-26T12:15:55.934Z,11.2
2022-09-26T12:16:56.011Z,11.3
2022-09-26T12:17:56.001Z,11.3
2022-09-26T12:18:56.081Z,11.3
2022-09-26T12:19:56.355Z,11.4
2022-09-26T12:20:56.354Z,11.3
2022-09-26T12:21:56.225Z,11.3
2022-09-26T12:22:56.292Z,11.3
2022-09-26T12:23:56.341Z,11.4
2022-09-26T12:24:56.420Z,11.4
2022-09-26T12:25:56.481Z,11.5
2022-09-26T12:26:56.573Z,11.5
2022-09-26T12:27:56.639Z,11.5
2022-09-26T12:28:56.715Z,11.6
2022-09-26T12:29:56.713Z,11.5
2022-09-26T12:30:56.887Z,11.5
2022-09-26T12:31:56.946Z,11.5
2022-09-26T12:32:56.907Z,11.6
2022-09-26T12:33:56.972Z,11.6
2022-09-26T12:34:57.027Z,11.6
2022-09-26T12:35:57.107Z,11.7
2022-09-26T12:36:57.174Z,11.7
2022-09-26T12:37:57.283Z,11.6
2022-09-26T12:38:57.274Z,11.6
2022-09-26T12:39:57.432Z,11.7
2022-09-26T12:40:57.414Z,11.8
2022-09-26T12:41:57.486Z,11.8
2022-09-26T12:42:57.523Z,11.8
2022-09-26T12:43:57.564Z,11.9
2022-09-26T12:44:57.839Z,12
2022-09-26T12:45:57.684Z,12.1
2022-09-26T12:46:58.117Z,12.2
2022-09-26T12:47:57.823Z,12.2
2022-09-26T12:48:58.157Z,12.3
2022-09-26T12:49:57.953Z,12.3
2022-09-26T12:50:58.151Z,12.2
2022-09-26T12:51:58.051Z,12.3
2022-09-26T12:52:58.109Z,12.3
2022-09-26T12:53:58.175Z,12.4
2022-09-26T12:54:59.859Z,12.5
2022-09-26T12:55:58.274Z,12.6
2022-09-26T12:56:59.270Z,12.5
2022-09-26T12:57:58.350Z,12.4
2022-09-26T12:59:01.531Z,12.3
2022-09-26T12:59:58.452Z,12.3
2022-09-26T13:01:26.987Z,12.3
2022-09-26T13:01:58.593Z,12.3
2022-09-26T13:03:11.261Z,12.4
2022-09-26T13:03:58.901Z,12.3
2022-09-26T13:04:58.682Z,12.3
2022-09-26T13:05:58.973Z,12.3
2022-09-26T13:07:17.571Z,12.3
2022-09-26T13:07:58.821Z,12.5
2022-09-26T13:08:59.146Z,12.6
2022-09-26T13:09:58.939Z,12.5
2022-09-26T13:10:58.971Z,12.4
2022-09-26T13:11:59.069Z,12.3
2022-09-26T13:12:59.124Z,12.3
2022-09-26T13:13:59.132Z,12.4
2022-09-26T13:14:59.182Z,12.4
2022-09-26T13:15:59.351Z,12.4
2022-09-26T13:16:59.320Z,12.4
2022-09-26T13:17:59.476Z,12.4
2022-09-26T13:18:59.438Z,12.4
2022-09-26T13:19:59.490Z,12.4
2022-09-26T13:20:59.536Z,12.4
2022-09-26T13:21:59.570Z,12.4
2022-09-26T13:22:59.614Z,12.4
2022-09-26T13:23:59.770Z,12.4
2022-09-26T13:24:59.761Z,12.4
2022-09-26T13:25:59.821Z,12.4
2022-09-26T13:26:59.968Z,12.3
2022-09-26T13:27:59.929Z,12.3
2022-09-26T13:29:16.065Z,12.2
2022-09-26T13:30:00.019Z,12.2
2022-09-26T13:31:00.199Z,12.1
2022-09-26T13:32:00.262Z,12.1
2022-09-26T13:33:00.333Z,12.1
2022-09-26T13:34:00.298Z,12.1
2022-09-26T13:35:00.366Z,12.1
2022-09-26T13:36:00.343Z,12
2022-09-26T13:37:00.475Z,12
2022-09-26T13:38:03.058Z,12
2022-09-26T13:39:00.488Z,12
2022-09-26T13:40:00.528Z,12
2022-09-26T13:41:00.696Z,12
2022-09-26T13:42:00.980Z,11.9
2022-09-26T13:43:10.391Z,11.8
2022-09-26T13:44:25.879Z,11.9
2022-09-26T13:45:40.425Z,11.8
2022-09-26T13:46:55.429Z,11.8
2022-09-26T13:48:07.435Z,11.8
2022-09-26T13:49:07.674Z,11.7
2022-09-26T13:50:07.594Z,11.7
2022-09-26T13:51:07.614Z,11.6
2022-09-26T13:52:07.632Z,11.6
2022-09-26T13:53:08.164Z,11.5
2022-09-26T13:54:07.823Z,11.5
2022-09-26T13:55:07.745Z,11.5
2022-09-26T13:56:07.945Z,11.4
2022-09-26T13:57:08.066Z,11.3
2022-09-26T13:58:07.946Z,11.3
2022-09-26T13:59:08.010Z,11.3
2022-09-26T14:00:07.943Z,11.2
2022-09-26T14:01:08.064Z,11.3
2022-09-26T14:02:09.441Z,11.3
2022-09-26T14:03:10.874Z,11.2
2022-09-26T14:04:08.132Z,11
2022-09-26T14:05:08.183Z,11
2022-09-26T14:06:08.283Z,11.1
2022-09-26T14:07:08.722Z,11
2022-09-26T14:08:08.394Z,11